ロサンゼルス の空港の天気 - METARとTAF

ロサンゼルス国際空港 ( KLAX / LAX ) - アメリカ カリフォルニア州ロサンゼルス
飛行場実況気象(Metar)
観測時間02/17 14:53 PST (02/17 22:53 UTC)
風向・風速西 9m/s
視程10km以上
天気現象
少しの雲 雲底高度 520m
少しの雲 雲底高度 820m
全天の4割程度の雲 雲底高度 1980m
気温12.8℃
湿度77%
気圧1015hPa
METARKLAX 172253Z 26017KT 10SM FEW017 FEW027 SCT065 13/09 A2997 RMK AO2 RAB21E38 SLP150 P0002 T01280089
過去の天気等 Google飛行場航空写真 Wunderground天気予報

過去48時間のMETAR

飛行場予報(TAF)
発表時間: 2/17 11:40 PST (2/17 19:40 UTC)
予報対象時間: 17日12時 PST ~ 18日16時 PST
風向・風速西 9m/s 瞬間風速 10m/s
視程10km以上
全天の4割程度の雲 雲底高度 850m
全天の4割程度の雲 雲底高度 2440m
全天の8割程度の雲 雲底高度 3350m
17日13時 PST から
風向・風速西南西 10m/s 瞬間風速 15m/s
視程10km以上
天気現象弱いしゅう雨 もや
全天の8割程度の雲 雲底高度 1070m
17日16時 PST から
風向・風速西 13m/s 瞬間風速 17m/s
視程10km以上
天気現象周辺でしゅう雨
全天の8割程度の雲 雲底高度 1070m
17日20時 PST から
風向・風速西北西 9m/s 瞬間風速 14m/s
視程10km以上
全天の8割程度の雲 雲底高度 1520m
18日1時 PST から
風向・風速北 8m/s
視程10km以上
全天の4割程度の雲 雲底高度 1520m
18日7時 PST から
風向・風速北北西 4m/s
視程10km以上
全天の4割程度の雲 雲底高度 1520m
18日12時 PST から
風向・風速西 8m/s
視程10km以上
なし
KLAX 171940Z 1720/1824 27017G20KT P6SM SCT028 SCT080 BKN110
FM172100 24020G30KT 6SM -SHRA BR BKN035
FM180000 27025G33KT P6SM VCSH BKN035
FM180400 29018G28KT P6SM BKN050
FM180900 35015KT P6SM SCT050
FM181500 34008KT P6SM SCT050
FM182000 26015KT P6SM SKC